• Join FlightAware (Why Join?)
  • Login
  • US Flag 
07:43PM EDT


 

Airport Tracker/Info


-or-


 

Live Flight TrackerFlight Track Log ✈ FIV342 ✈ 25-Feb-2012 ✈ KIWA - KICT

Flight Track Log - Related Links

Times and Time Zones

All times are in EST time to prevent confusion due to time zone crossing. See the FIV342 flight status page for this flight to view local times or setup timezone preferences in your user account.

Time Position Orientation Groundspeed Altitude Reporting Facility
EST Latitude Longitude Course Direction KTS MPH feet Rate Location/Type
05:41PM 33.3167 -111.6667 40° Northeast 169 194 2,200  Level Phoenix TRACON
05:42PM 33.3500 -111.6333 107° East 214 246 4,500 2,160 Climbing Phoenix TRACON
05:43PM 33.3333 -111.5667 40° Northeast 225 259 6,800 2,040 Climbing Phoenix TRACON
05:44PM 33.3667 -111.5333 26° Northeast 253 291 8,200 1,200 Climbing Phoenix TRACON
05:45PM 33.4031 -111.5119 21° North 297 342 8,500 1,020 Climbing Albuquerque Center
05:46PM 33.4814 -111.4761 25° Northeast 304 350 9,900 720 Climbing Albuquerque Center
05:47PM 33.5431 -111.4419 24° Northeast 279 321 10,000 120 Climbing Albuquerque Center
05:48PM 33.5983 -111.4119 29° Northeast 239 275 10,200 420 Climbing Albuquerque Center
05:49PM 33.6539 -111.3747 61° Northeast 222 255 10,900 300 Climbing Albuquerque Center
05:50PM 33.6831 -111.3114 68° East 207 238 10,900  Level Albuquerque Center
05:51PM 33.7039 -111.2500 71° East 201 231 11,000  Climbing Albuquerque Center
05:52PM 33.7225 -111.1858 63° Northeast 196 226 11,000  Level Albuquerque Center
05:53PM 33.7497 -111.1222 70° East 191 220 11,000  Level Albuquerque Center
05:54PM 33.7683 -111.0606 68° East 191 220 11,000  Level Albuquerque Center
05:55PM 33.7889 -110.9992 71° East 191 220 11,000  Level Albuquerque Center
05:56PM 33.8075 -110.9350 64° Northeast 191 220 11,000 600 Level Albuquerque Center
05:57PM 33.8344 -110.8686 67° East 197 227 12,300 1,440 Climbing Albuquerque Center
05:58PM 33.8594 -110.7972 68° East 215 247 13,900 840 Climbing Albuquerque Center
05:59PM 33.8822 -110.7306 65° Northeast 220 253 14,000  Climbing Albuquerque Center
06:00PM 33.9047 -110.6714 69° East 220 253 14,000 -60 Level Albuquerque Center
06:01PM 33.9253 -110.6072 64° Northeast 213 245 13,900  Descending Albuquerque Center
06:02PM 33.9500 -110.5456 69° East 208 239 14,000 120 Climbing Albuquerque Center
06:03PM 33.9750 -110.4689 70° East 215 247 14,200 720 Climbing Albuquerque Center
06:04PM 34.0069 -110.3622 67° East 274 315 15,500 1,440 Climbing Albuquerque Center
06:05PM 34.0428 -110.2583 66° East 311 358 17,100 1,620 Climbing Albuquerque Center
06:06PM 34.0764 -110.1667 66° East 330 380 18,800 1,680 Climbing Albuquerque Center
06:07PM 34.1186 -110.0503 67° East 330 380 20,500 1,620 Climbing Albuquerque Center
06:08PM 34.1544 -109.9461 67° East 330 380 22,100 1,560 Climbing Albuquerque Center
06:09PM 34.1878 -109.8492 69° East 336 387 23,700 1,740 Climbing Albuquerque Center
06:10PM 34.2278 -109.7247 67° East 354 407 25,600 1,620 Climbing Albuquerque Center
06:11PM 34.2675 -109.6103 68° East 363 418 27,000 660 Climbing Albuquerque Center
06:12PM 34.3094 -109.4858 68° East 381 438 27,000  Level Albuquerque Center
06:13PM 34.3511 -109.3636 67° East 407 468 27,000  Level Albuquerque Center
06:14PM 34.3994 -109.2264 70° East 431 496 27,000  Level Albuquerque Center
06:15PM 34.4411 -109.0836 72° East 437 503 27,000  Level Albuquerque Center
06:16PM 34.4806 -108.9383 70° East 448 516 27,000  Level Albuquerque Center
06:17PM 34.5222 -108.7956 72° East 448 516 27,000  Level Albuquerque Center
06:18PM 34.5614 -108.6525 76° East 443 510 27,000  Level Albuquerque Center
06:19PM 34.5942 -108.4889 67° East 443 510 27,000  Level Albuquerque Center
06:20PM 34.6436 -108.3483 73° East 438 504 27,000  Level Albuquerque Center
06:21PM 34.6800 -108.2022 70° East 438 504 27,000  Level Albuquerque Center
06:22PM 34.7228 -108.0561 73° East 444 511 27,000  Level Albuquerque Center
06:23PM 34.7589 -107.9097 72° East 444 511 27,000  Level Albuquerque Center
06:24PM 34.7928 -107.7811 72° East 439 505 27,000  Level Albuquerque Center
06:25PM 34.8350 -107.6244 73° East 439 505 27,000  Level Albuquerque Center
06:26PM 34.8728 -107.4750 71° East 447 514 27,000  Level Albuquerque Center
06:27PM 34.9106 -107.3383 72° East 459 528 27,000  Level Albuquerque Center
06:28PM 34.9481 -107.1939 74° East 459 528 27,000  Level Albuquerque Center
06:29PM 34.9872 -107.0317 72° East 454 522 27,000  Level Albuquerque Center
06:30PM 35.0264 -106.8819 69° East 461 531 27,000  Level Albuquerque Center
06:31PM 35.0675 -106.7522 66° East 461 531 27,000  Level Albuquerque Center
06:32PM 35.1189 -106.6122 66° East 455 524 27,000  Level Albuquerque Center
06:33PM 35.1764 -106.4567 65° Northeast 455 524 27,000  Level Albuquerque Center
06:34PM 35.2294 -106.3161 66° East 455 524 27,000  Level Albuquerque Center
06:35PM 35.2803 -106.1731 65° Northeast 455 524 27,000  Level Albuquerque Center
06:36PM 35.3350 -106.0319 65° Northeast 455 524 27,000  Level Albuquerque Center
06:37PM 35.3878 -105.8936 68° East 455 524 27,000  Level Albuquerque Center
06:38PM 35.4319 -105.7603 66° East 460 529 27,000  Level Albuquerque Center
06:39PM 35.4822 -105.6189 66° East 460 529 27,000  Level Albuquerque Center
06:40PM 35.5383 -105.4647 66° East 453 521 27,000  Level Albuquerque Center
06:41PM 35.5903 -105.3228 65° Northeast 453 521 27,000  Level Albuquerque Center
06:42PM 35.6381 -105.1964 67° East 453 521 27,000  Level Albuquerque Center
06:43PM 35.6875 -105.0544 66° East 453 521 27,000  Level Albuquerque Center
06:44PM 35.7450 -104.8967 67° East 447 514 27,000  Level Albuquerque Center
06:45PM 35.7942 -104.7544 67° East 452 520 27,000  Level Albuquerque Center
06:46PM 35.8431 -104.6144 67° East 447 514 27,000  Level Albuquerque Center
06:47PM 35.8939 -104.4689 67° East 447 514 27,000  Level Albuquerque Center
06:48PM 35.9425 -104.3286 67° East 447 514 27,000  Level Albuquerque Center
06:49PM 35.9911 -104.1883 66° East 447 514 27,000  Level Albuquerque Center
06:50PM 36.0436 -104.0397 67° East 447 514 27,000  Level Albuquerque Center
06:51PM 36.0858 -103.9144 67° East 447 514 27,000  Level Albuquerque Center
06:52PM 36.1358 -103.7683 67° East 447 514 27,000  Level Albuquerque Center
06:53PM 36.1836 -103.6272 67° East 447 514 27,000  Level Albuquerque Center
06:54PM 36.2333 -103.4831 67° East 447 514 27,000  Level Albuquerque Center
06:55PM 36.2828 -103.3389 68° East 448 516 27,000  Level Albuquerque Center
06:56PM 36.3339 -103.1817 68° East 448 516 27,000  Level Albuquerque Center
06:57PM 36.3772 -103.0503 67° East 447 514 27,000  Level Albuquerque Center
06:58PM 36.4650 -102.7897 69° East 454 522 27,000  Level Kansas City Center
06:59PM 36.5106 -102.6444 66° East 454 522 27,000  Level Kansas City Center
07:00PM 36.5597 -102.5047 68° East 447 514 27,000  Level Kansas City Center
07:01PM 36.6072 -102.3572 70° East 447 514 27,000  Level Kansas City Center
07:02PM 36.6450 -102.2264 67° East 447 514 27,000  Level Kansas City Center
07:03PM 36.6989 -102.0683 68° East 442 509 27,000  Level Kansas City Center
07:04PM 36.7433 -101.9275 71° East 442 509 27,000  Level Kansas City Center
07:05PM 36.7808 -101.7939 74° East 437 503 27,000  Level Kansas City Center
07:06PM 36.8150 -101.6414 74° East 442 509 27,000  Level Kansas City Center
07:07PM 36.8522 -101.4733 75° East 453 521 27,000  Level Kansas City Center
07:08PM 36.8836 -101.3256 74° East 447 514 27,000  Level Kansas City Center
07:09PM 36.9144 -101.1881 75° East 447 514 27,000  Level Kansas City Center
07:10PM 36.9486 -101.0244 75° East 447 514 27,000  Level Kansas City Center
07:11PM 36.9797 -100.8739 75° East 447 514 27,000  Level Kansas City Center
07:12PM 37.0103 -100.7256 75° East 447 514 27,000  Level Kansas City Center
07:13PM 37.0406 -100.5875 76° East 447 514 27,000  Level Kansas City Center
07:14PM 37.0739 -100.4233 76° East 447 514 27,000  Level Kansas City Center
07:15PM 37.1042 -100.2719 75° East 447 514 27,000  Level Kansas City Center
07:16PM 37.1336 -100.1361 76° East 447 514 27,000  Level Kansas City Center
07:17PM 37.1664 -99.9692 75° East 452 520 27,000  Level Kansas City Center
07:18PM 37.1983 -99.8150 76° East 447 514 27,000  Level Kansas City Center
07:19PM 37.2278 -99.6683 75° East 447 514 27,000  Level Kansas City Center
07:20PM 37.2567 -99.5294 77° East 447 514 27,000 -480 Level Kansas City Center
07:21PM 37.2836 -99.3850 76° East 447 514 26,100 -1,500 Descending Kansas City Center
07:22PM 37.3150 -99.2303 76° East 428 493 24,100 -2,100 Descending Kansas City Center
07:23PM 37.3433 -99.0908 77° East 416 479 22,000 -2,040 Descending Kansas City Center
07:24PM 37.3694 -98.9514 76° East 411 473 20,100 2,460 Descending Kansas City Center
07:25PM 37.3953 -98.8169 77° East 411 473 27,000 -2,040 Climbing Kansas City Center
07:26PM 37.4186 -98.6850 76° East 400 460 16,100 -6,300 Descending Kansas City Center
07:27PM 37.4439 -98.5556 78° East 388 447 14,400 -1,680 Descending Kansas City Center
07:28PM 37.4597 -98.4594 73° East 377 434 13,300 -1,500 Descending Kansas City Center
07:29PM 37.4981 -98.3044 62° Northeast 371 427 11,400 -1,440 Descending Kansas City Center
07:30PM 37.5456 -98.1914 64° Northeast 360 414 10,100 -1,320 Descending Kansas City Center
07:31PM 37.5864 -98.0861 64° Northeast 349 402 8,800 -1,380 Descending Kansas City Center
07:32PM 37.6269 -97.9806 58° Northeast 336 387 7,400 -1,380 Descending Kansas City Center
07:33PM 37.6736 -97.8856 57° Northeast 330 380 6,100 -1,080 Descending Kansas City Center
07:34PM 37.7219 -97.7906 60° Northeast 319 367 5,300 -600 Descending Kansas City Center
07:35PM 37.7642 -97.6978 76° East 314 361 5,000 -180 Descending Kansas City Center
07:36PM 37.7833 -97.6014 87° East 293 337 5,000 -180 Level Kansas City Center
07:38PM 37.7883 -97.4939 86° East 285 328 4,700 -540 Descending Kansas City Center
07:38PM 37.7922 -97.4153 166° South 265 305 4,000 -960 Descending Kansas City Center
07:40PM 37.7447 -97.4003 174° South 140 161 2,800 -780 Descending Kansas City Center
07:40PM 37.7175 -97.3967 194° South 124 143 2,500 -480 Descending Kansas City Center
07:41PM 37.6881 -97.4058 200° South 124 143 2,000 -600 Descending Kansas City Center
07:42PM 37.6608 -97.4181 200° South 113 130 1,400 -600 Descending Kansas City Center